MSSS/SAL METAR and TAF weather

Enter ICAO airport designator
Station Type Date Time Source
MSSS METAR 2019/05/25 14:50 UTC NOAA

MSSS 251450Z 33010KT 320V020 9999 FEW013 24/22 Q1014 A2996


Station Type Date Time Source
MSSS Decoded METAR 2019/05/25 14:50 UTC NOAA

San Salvador / Ilopango, El Salvador (MSSS) 13-42N 089-07W 621M
May 25, 2019 - 10:50 AM EDT / 2019.05.25 1450 UTC
Wind: from the NNW (330 degrees) at 12 MPH (10 KT) (direction variable):0
Visibility: greater than 7 mile(s):0
Sky conditions: mostly clear
Temperature: 75 F (24 C)
Dew Point: 71 F (22 C)
Relative Humidity: 88%
Pressure (altimeter): 29.96 in. Hg (1014 hPa)
ob: MSSS 251450Z 33010KT 320V020 9999 FEW013 24/22 Q1014 A2996
cycle: 15

Station Type Date Time Source
MSSS TAF 2019/05/25 12:40 UTC NOAA

TAF MSSS 250925Z 2512/2612 35003KT 7000 BKN017
FM251800 17010KT 9999 BKN023 SCT033CB
TEMPO 2519/2522 5000 TSRA
FM260000 35005KT 7000 BKN017 FEW033CB
TEMPO 2603/2606 4000 TSRA

Example: see airport list